Time;durP1;ratioP1;P1;durP2;ratioP2;P2;SDS_P1;SDS_P2;PMS_P1;PMS_P2;Temp;Humidity;BMP_temperature;BMP_pressure;BME280_temperature;BME280_humidity;BME280_pressure;Samples;Min_cycle;Max_cycle;Signal;HPM_P1;HPM_P2
2021/09/27 00:01:47;;;;;;;;;;;22.60;58.20;;;;;;480838;247;1636;-47
2021/09/27 00:03:48;;;;;;;;;;;22.60;58.20;;;;;;480641;247;2150;-47
2021/09/27 00:05:49;;;;;;;;;;;22.60;58.30;;;;;;480703;244;1267;-46
2021/09/27 00:07:51;;;;;;;;;;;22.60;58.20;;;;;;481104;247;1159;-47
2021/09/27 00:09:52;;;;;;;;;;;22.60;58.20;;;;;;480984;247;2196;-46
2021/09/27 00:11:53;;;;;;;;;;;22.60;58.10;;;;;;481002;247;1157;-47
2021/09/27 00:13:55;;;;;;;;;;;22.60;58.10;;;;;;481153;247;1229;-47
2021/09/27 00:15:56;;;;;;;;;;;22.60;58.20;;;;;;480681;248;1213;-47
2021/09/27 00:17:57;;;;;;;;;;;22.60;58.20;;;;;;480680;248;1859;-46
2021/09/27 00:19:59;;;;;;;;;;;22.70;58.20;;;;;;480740;248;1061;-47
2021/09/27 00:22:00;;;;;;;;;;;22.70;58.20;;;;;;480830;247;1432;-47
2021/09/27 00:24:01;;;;;;;;;;;22.60;58.20;;;;;;480711;248;1187;-47
2021/09/27 00:26:03;;;;;;;;;;;22.70;58.10;;;;;;480737;247;1224;-47
2021/09/27 00:28:04;;;;;;;;;;;22.60;58.20;;;;;;480995;247;1187;-47
2021/09/27 00:30:05;;;;;;;;;;;22.70;58.20;;;;;;481056;247;2138;-47
2021/09/27 00:32:06;;;;;;;;;;;22.60;58.20;;;;;;480630;248;1174;-47
2021/09/27 00:34:08;;;;;;;;;;;22.60;58.20;;;;;;480912;247;982;-47
2021/09/27 00:36:09;;;;;;;;;;;22.60;58.20;;;;;;480924;247;1392;-47
2021/09/27 00:38:10;;;;;;;;;;;22.70;58.20;;;;;;480645;247;1140;-47
2021/09/27 00:40:12;;;;;;;;;;;22.60;58.20;;;;;;480680;248;1083;-47
2021/09/27 00:42:13;;;;;;;;;;;22.70;58.20;;;;;;481064;247;1050;-47
2021/09/27 00:44:15;;;;;;;;;;;22.70;58.10;;;;;;480859;247;1041;-47
2021/09/27 00:46:16;;;;;;;;;;;22.70;58.10;;;;;;480935;247;1162;-47
2021/09/27 00:48:17;;;;;;;;;;;22.70;58.10;;;;;;481091;247;1195;-46
2021/09/27 00:50:18;;;;;;;;;;;22.70;58.10;;;;;;480833;247;2122;-47
2021/09/27 00:52:20;;;;;;;;;;;22.60;58.20;;;;;;481088;247;1242;-47
2021/09/27 00:54:21;;;;;;;;;;;22.60;58.10;;;;;;480689;248;1062;-47
2021/09/27 00:56:23;;;;;;;;;;;22.60;58.20;;;;;;480692;247;1201;-47
2021/09/27 00:58:25;;;;;;;;;;;22.60;58.20;;;;;;480659;248;1078;-47
2021/09/27 01:00:26;;;;;;;;;;;22.60;58.20;;;;;;481007;247;1056;-47
2021/09/27 01:02:27;;;;;;;;;;;22.70;58.20;;;;;;480815;247;1072;-47
2021/09/27 01:04:29;;;;;;;;;;;22.60;58.20;;;;;;480837;247;1085;-46
2021/09/27 01:06:30;;;;;;;;;;;22.70;58.20;;;;;;480813;247;1042;-47
2021/09/27 01:08:31;;;;;;;;;;;22.60;58.20;;;;;;481147;247;1011;-47
2021/09/27 01:10:33;;;;;;;;;;;22.60;58.20;;;;;;480973;247;2166;-46
2021/09/27 01:12:34;;;;;;;;;;;22.60;58.20;;;;;;480944;247;1103;-47
2021/09/27 01:14:35;;;;;;;;;;;22.60;58.30;;;;;;481148;247;1061;-47
2021/09/27 01:16:37;;;;;;;;;;;22.70;58.20;;;;;;481128;247;1182;-47
2021/09/27 01:18:38;;;;;;;;;;;22.60;58.20;;;;;;480976;247;1108;-47
2021/09/27 01:20:39;;;;;;;;;;;22.60;58.20;;;;;;480847;247;1083;-47
2021/09/27 01:22:41;;;;;;;;;;;22.60;58.20;;;;;;480927;247;1180;-47
2021/09/27 01:24:42;;;;;;;;;;;22.70;58.20;;;;;;480756;248;1084;-47
2021/09/27 01:26:43;;;;;;;;;;;22.60;58.10;;;;;;480691;247;1382;-46
2021/09/27 01:28:44;;;;;;;;;;;22.60;58.10;;;;;;480757;248;1081;-47
2021/09/27 01:30:46;;;;;;;;;;;22.60;58.20;;;;;;480843;247;2189;-47
2021/09/27 01:32:47;;;;;;;;;;;22.70;58.20;;;;;;481097;247;1277;-47
2021/09/27 01:34:49;;;;;;;;;;;22.70;58.10;;;;;;480682;248;1219;-47
2021/09/27 01:36:50;;;;;;;;;;;22.60;58.30;;;;;;480808;247;1302;-46
2021/09/27 01:38:51;;;;;;;;;;;22.60;58.30;;;;;;480963;247;1162;-47
2021/09/27 01:40:52;;;;;;;;;;;22.60;58.30;;;;;;480808;247;1237;-46
2021/09/27 01:42:54;;;;;;;;;;;22.70;58.20;;;;;;480689;248;1161;-47
2021/09/27 01:44:55;;;;;;;;;;;22.70;58.20;;;;;;481066;247;1070;-47
2021/09/27 01:46:56;;;;;;;;;;;22.60;58.20;;;;;;480804;247;1228;-47
2021/09/27 01:48:58;;;;;;;;;;;22.70;58.10;;;;;;481119;247;1070;-47
2021/09/27 01:50:59;;;;;;;;;;;22.70;58.10;;;;;;480920;247;2194;-47
2021/09/27 01:53:00;;;;;;;;;;;22.60;58.30;;;;;;481029;247;1059;-47
2021/09/27 01:55:02;;;;;;;;;;;22.60;58.20;;;;;;481170;247;1043;-46
2021/09/27 01:57:03;;;;;;;;;;;22.60;58.30;;;;;;480701;247;1263;-47
2021/09/27 01:59:04;;;;;;;;;;;22.70;58.20;;;;;;480821;247;1063;-47
2021/09/27 02:01:06;;;;;;;;;;;22.70;58.10;;;;;;480666;248;1155;-47
2021/09/27 02:03:07;;;;;;;;;;;22.70;58.20;;;;;;480685;248;1099;-47
2021/09/27 02:05:10;;;;;;;;;;;22.60;58.20;;;;;;480988;247;1133;-47
2021/09/27 02:07:10;;;;;;;;;;;22.70;58.20;;;;;;480537;248;2282;-47
2021/09/27 02:09:11;;;;;;;;;;;22.60;58.20;;;;;;481095;247;1216;-47
2021/09/27 02:11:12;;;;;;;;;;;22.60;58.20;;;;;;480672;247;2214;-47
2021/09/27 02:13:14;;;;;;;;;;;22.60;58.20;;;;;;480728;248;1067;-47
2021/09/27 02:15:15;;;;;;;;;;;22.60;58.20;;;;;;480690;248;1224;-47
2021/09/27 02:17:16;;;;;;;;;;;22.70;58.20;;;;;;480924;247;1310;-47
2021/09/27 02:19:18;;;;;;;;;;;22.70;58.10;;;;;;481118;247;1154;-47
2021/09/27 02:21:19;;;;;;;;;;;22.70;58.20;;;;;;480823;247;1174;-47
2021/09/27 02:23:20;;;;;;;;;;;22.60;58.20;;;;;;481177;247;1145;-47
2021/09/27 02:25:22;;;;;;;;;;;22.70;58.20;;;;;;481161;247;1074;-47
2021/09/27 02:27:23;;;;;;;;;;;22.70;58.30;;;;;;480789;247;1203;-47
2021/09/27 02:29:24;;;;;;;;;;;22.60;58.20;;;;;;481177;247;1192;-46
2021/09/27 02:31:26;;;;;;;;;;;22.70;58.20;;;;;;480710;247;2135;-47
2021/09/27 02:33:27;;;;;;;;;;;22.70;58.10;;;;;;480706;248;1049;-47
2021/09/27 02:35:28;;;;;;;;;;;22.70;58.20;;;;;;480676;248;1091;-47
2021/09/27 02:37:30;;;;;;;;;;;22.70;58.20;;;;;;481138;247;1163;-47
2021/09/27 02:39:31;;;;;;;;;;;22.60;58.20;;;;;;480732;248;1016;-47
2021/09/27 02:41:32;;;;;;;;;;;22.70;58.20;;;;;;480885;247;1199;-47
2021/09/27 02:43:33;;;;;;;;;;;22.60;58.20;;;;;;480946;247;1050;-47
2021/09/27 02:45:35;;;;;;;;;;;22.70;58.10;;;;;;480882;247;1073;-47
2021/09/27 02:47:36;;;;;;;;;;;22.70;58.10;;;;;;480707;248;1180;-47
2021/09/27 02:49:42;;;;;;;;;;;22.70;58.10;;;;;;480969;247;1429;-47
2021/09/27 02:51:39;;;;;;;;;;;22.60;58.20;;;;;;480482;248;2637;-46
2021/09/27 02:53:41;;;;;;;;;;;22.60;58.20;;;;;;480720;248;1046;-47
2021/09/27 02:55:42;;;;;;;;;;;22.60;58.20;;;;;;480734;244;1241;-47
2021/09/27 02:57:43;;;;;;;;;;;22.60;58.30;;;;;;480867;247;1352;-47
2021/09/27 02:59:44;;;;;;;;;;;22.70;58.30;;;;;;480852;247;1085;-47
2021/09/27 03:01:46;;;;;;;;;;;22.60;58.20;;;;;;480734;247;1427;-47
2021/09/27 03:03:48;;;;;;;;;;;22.70;58.30;;;;;;481121;247;1107;-46
2021/09/27 03:05:48;;;;;;;;;;;22.60;58.20;;;;;;480588;248;2386;-47
2021/09/27 03:07:50;;;;;;;;;;;22.70;58.20;;;;;;480844;247;1166;-47
2021/09/27 03:09:51;;;;;;;;;;;22.70;58.30;;;;;;481180;247;1079;-46
2021/09/27 03:11:52;;;;;;;;;;;22.60;58.20;;;;;;480740;247;2130;-47
2021/09/27 03:13:54;;;;;;;;;;;22.70;58.20;;;;;;480679;248;1053;-47
2021/09/27 03:15:55;;;;;;;;;;;22.60;58.20;;;;;;480852;244;1243;-47
2021/09/27 03:17:56;;;;;;;;;;;22.70;58.30;;;;;;480709;248;1245;-47
2021/09/27 03:19:58;;;;;;;;;;;22.70;58.20;;;;;;480762;247;1048;-47
2021/09/27 03:21:59;;;;;;;;;;;22.60;58.20;;;;;;480625;248;1374;-47
2021/09/27 03:24:00;;;;;;;;;;;22.60;58.20;;;;;;480705;248;1178;-47
2021/09/27 03:26:02;;;;;;;;;;;22.70;58.20;;;;;;481085;247;1181;-47
2021/09/27 03:28:03;;;;;;;;;;;22.60;58.30;;;;;;480830;247;1175;-47
2021/09/27 03:30:04;;;;;;;;;;;22.70;58.30;;;;;;481162;247;1030;-47
2021/09/27 03:32:06;;;;;;;;;;;22.70;58.30;;;;;;480770;247;2194;-47
2021/09/27 03:34:07;;;;;;;;;;;22.60;58.30;;;;;;480685;248;1083;-46
2021/09/27 03:36:08;;;;;;;;;;;22.60;58.30;;;;;;480715;247;1288;-47
2021/09/27 03:38:10;;;;;;;;;;;22.60;58.40;;;;;;481096;247;1069;-47
2021/09/27 03:40:11;;;;;;;;;;;22.70;58.30;;;;;;480687;248;1075;-47
2021/09/27 03:42:12;;;;;;;;;;;22.50;58.30;;;;;;481025;247;1251;-47
2021/09/27 03:44:14;;;;;;;;;;;22.50;58.40;;;;;;481146;247;1027;-47
2021/09/27 03:46:18;;;;;;;;;;;22.60;58.40;;;;;;480968;244;1255;-47
2021/09/27 03:48:19;;;;;;;;;;;22.60;58.30;;;;;;481007;247;1038;-47
2021/09/27 03:50:21;;;;;;;;;;;22.60;58.40;;;;;;481108;247;1062;-47
2021/09/27 03:52:22;;;;;;;;;;;22.60;58.30;;;;;;481086;247;2197;-47
2021/09/27 03:54:23;;;;;;;;;;;22.70;58.30;;;;;;480688;248;1084;-47
2021/09/27 03:56:25;;;;;;;;;;;22.60;58.30;;;;;;480643;248;1227;-47
2021/09/27 03:58:26;;;;;;;;;;;22.60;58.30;;;;;;480705;248;1235;-47
2021/09/27 04:00:27;;;;;;;;;;;22.60;58.30;;;;;;480676;248;2094;-46
2021/09/27 04:02:29;;;;;;;;;;;22.60;58.30;;;;;;480675;247;1157;-47
2021/09/27 04:04:30;;;;;;;;;;;22.70;58.30;;;;;;481121;247;1026;-47
2021/09/27 04:06:31;;;;;;;;;;;22.60;58.20;;;;;;480803;247;1260;-47
2021/09/27 04:08:32;;;;;;;;;;;22.70;58.20;;;;;;480984;247;1124;-47
2021/09/27 04:10:34;;;;;;;;;;;22.70;58.20;;;;;;480937;247;1056;-47
2021/09/27 04:12:35;;;;;;;;;;;22.70;58.20;;;;;;480597;248;2217;-47
2021/09/27 04:14:36;;;;;;;;;;;22.70;58.20;;;;;;480692;248;1187;-47
2021/09/27 04:16:38;;;;;;;;;;;22.60;58.20;;;;;;480709;247;1399;-47
2021/09/27 04:18:39;;;;;;;;;;;22.70;58.20;;;;;;480724;247;1066;-47
2021/09/27 04:20:40;;;;;;;;;;;22.70;58.30;;;;;;480591;248;1466;-47
2021/09/27 04:22:42;;;;;;;;;;;22.60;58.20;;;;;;480564;248;1160;-47
2021/09/27 04:24:43;;;;;;;;;;;22.70;58.30;;;;;;480773;247;1184;-47
2021/09/27 04:26:44;;;;;;;;;;;22.60;58.30;;;;;;480724;247;1304;-47
2021/09/27 04:28:48;;;;;;;;;;;22.60;58.30;;;;;;480763;247;1173;-47
2021/09/27 04:30:47;;;;;;;;;;;22.60;58.30;;;;;;480566;248;2213;-47
2021/09/27 04:32:48;;;;;;;;;;;22.60;58.30;;;;;;481023;247;2110;-47
2021/09/27 04:34:50;;;;;;;;;;;22.70;58.40;;;;;;480980;247;1072;-47
2021/09/27 04:36:51;;;;;;;;;;;22.70;58.40;;;;;;480623;247;1122;-47
2021/09/27 04:38:52;;;;;;;;;;;22.60;58.40;;;;;;480585;247;1080;-47
2021/09/27 04:40:54;;;;;;;;;;;22.60;58.30;;;;;;481016;247;1070;-47
2021/09/27 04:42:56;;;;;;;;;;;22.60;58.30;;;;;;480695;247;1184;-47
2021/09/27 04:44:57;;;;;;;;;;;22.70;58.30;;;;;;480580;248;1058;-47
2021/09/27 04:46:59;;;;;;;;;;;22.60;58.20;;;;;;480609;247;1074;-47
2021/09/27 04:49:00;;;;;;;;;;;22.70;58.20;;;;;;480738;247;1229;-47
2021/09/27 04:51:01;;;;;;;;;;;22.60;58.20;;;;;;480476;248;1091;-47
2021/09/27 04:53:02;;;;;;;;;;;22.60;58.30;;;;;;480458;247;2118;-47
2021/09/27 04:55:05;;;;;;;;;;;22.70;58.30;;;;;;480491;247;1055;-46
2021/09/27 04:57:05;;;;;;;;;;;22.70;58.30;;;;;;480363;248;2081;-46
2021/09/27 04:59:06;;;;;;;;;;;22.70;58.40;;;;;;480515;248;1173;-46
2021/09/27 05:01:08;;;;;;;;;;;22.60;58.40;;;;;;480690;247;1085;-46
2021/09/27 05:03:09;;;;;;;;;;;22.70;58.30;;;;;;480447;247;1173;-46
2021/09/27 05:05:11;;;;;;;;;;;22.70;58.30;;;;;;480468;247;1096;-46
2021/09/27 05:07:12;;;;;;;;;;;22.70;58.20;;;;;;480400;248;1368;-46
2021/09/27 05:09:13;;;;;;;;;;;22.60;58.30;;;;;;480854;247;1129;-46
2021/09/27 05:11:15;;;;;;;;;;;22.70;58.30;;;;;;480602;247;1184;-46
2021/09/27 05:13:16;;;;;;;;;;;22.70;58.30;;;;;;480347;248;2134;-46
2021/09/27 05:15:17;;;;;;;;;;;22.70;58.20;;;;;;480399;247;1154;-46
2021/09/27 05:17:19;;;;;;;;;;;22.60;58.20;;;;;;480278;248;1253;-47
2021/09/27 05:19:20;;;;;;;;;;;22.70;58.30;;;;;;480420;247;1065;-46
2021/09/27 05:21:21;;;;;;;;;;;22.60;58.20;;;;;;480631;247;1395;-46
2021/09/27 05:23:23;;;;;;;;;;;22.70;58.30;;;;;;480456;248;1130;-46
2021/09/27 05:25:24;;;;;;;;;;;22.70;58.20;;;;;;480389;248;1209;-46
2021/09/27 05:27:25;;;;;;;;;;;22.70;58.30;;;;;;480432;244;1431;-46
2021/09/27 05:29:27;;;;;;;;;;;22.60;58.30;;;;;;480453;247;1231;-46
2021/09/27 05:31:28;;;;;;;;;;;22.60;58.30;;;;;;480261;248;2202;-46
2021/09/27 05:33:29;;;;;;;;;;;22.60;58.20;;;;;;480515;247;1121;-46
2021/09/27 05:35:30;;;;;;;;;;;22.70;58.30;;;;;;480367;247;1072;-46
2021/09/27 05:37:32;;;;;;;;;;;22.70;58.20;;;;;;480263;247;1150;-46
2021/09/27 05:39:33;;;;;;;;;;;22.70;58.20;;;;;;480389;247;1113;-46
2021/09/27 05:41:35;;;;;;;;;;;22.70;58.30;;;;;;480305;248;1160;-46
2021/09/27 05:43:36;;;;;;;;;;;22.70;58.20;;;;;;480423;247;1214;-46
2021/09/27 05:45:37;;;;;;;;;;;22.70;58.20;;;;;;480497;247;1055;-46
2021/09/27 05:47:38;;;;;;;;;;;22.70;58.20;;;;;;480669;247;1130;-46
2021/09/27 05:49:40;;;;;;;;;;;22.70;58.30;;;;;;480404;248;1150;-46
2021/09/27 05:51:41;;;;;;;;;;;22.60;58.30;;;;;;480290;248;2133;-46
2021/09/27 05:53:42;;;;;;;;;;;22.60;58.30;;;;;;480505;247;1129;-46
2021/09/27 05:55:44;;;;;;;;;;;22.70;58.40;;;;;;480258;248;1107;-46
2021/09/27 05:57:45;;;;;;;;;;;22.70;58.30;;;;;;480274;247;1158;-46
2021/09/27 05:59:46;;;;;;;;;;;22.70;58.40;;;;;;480497;247;1389;-46
2021/09/27 06:01:48;;;;;;;;;;;22.70;58.40;;;;;;480186;247;1113;-46
2021/09/27 06:03:49;;;;;;;;;;;22.70;58.50;;;;;;480132;248;1244;-46
2021/09/27 06:05:50;;;;;;;;;;;22.80;58.60;;;;;;480411;247;1066;-46
2021/09/27 06:07:52;;;;;;;;;;;22.70;58.60;;;;;;480310;247;1400;-46
2021/09/27 06:09:53;;;;;;;;;;;22.70;58.70;;;;;;480382;248;1302;-46
2021/09/27 06:11:54;;;;;;;;;;;22.70;58.70;;;;;;480208;248;2212;-46
2021/09/27 06:13:56;;;;;;;;;;;22.70;58.80;;;;;;480469;247;1266;-46
2021/09/27 06:15:58;;;;;;;;;;;22.70;58.80;;;;;;480230;248;1265;-46
2021/09/27 06:17:59;;;;;;;;;;;22.70;58.90;;;;;;480058;248;1333;-46
2021/09/27 06:20:00;;;;;;;;;;;22.70;58.80;;;;;;480208;247;1114;-46
2021/09/27 06:22:02;;;;;;;;;;;22.70;58.90;;;;;;480188;248;1313;-46
2021/09/27 06:24:04;;;;;;;;;;;22.70;59.20;;;;;;480276;247;1177;-46
2021/09/27 06:26:05;;;;;;;;;;;22.70;59.10;;;;;;480420;248;1536;-46
2021/09/27 06:28:07;;;;;;;;;;;22.70;59.10;;;;;;480043;247;1319;-45
2021/09/27 06:30:07;;;;;;;;;;;22.70;59.10;;;;;;480011;248;2245;-46
2021/09/27 06:32:09;;;;;;;;;;;22.70;59.00;;;;;;480042;248;2193;-46
2021/09/27 06:34:10;;;;;;;;;;;22.70;59.10;;;;;;480145;247;1165;-46
2021/09/27 06:36:11;;;;;;;;;;;22.70;59.00;;;;;;479939;248;1314;-46
2021/09/27 06:38:13;;;;;;;;;;;22.70;58.90;;;;;;480141;247;1218;-46
2021/09/27 06:40:14;;;;;;;;;;;22.80;59.00;;;;;;479622;248;2436;-46
2021/09/27 06:42:16;;;;;;;;;;;22.80;59.00;;;;;;480063;247;1248;-46
2021/09/27 06:44:17;;;;;;;;;;;22.70;59.00;;;;;;479998;248;1079;-46
2021/09/27 06:46:19;;;;;;;;;;;22.80;59.10;;;;;;480031;247;1212;-46
2021/09/27 06:48:20;;;;;;;;;;;22.70;59.20;;;;;;480009;247;1447;-46
2021/09/27 06:50:21;;;;;;;;;;;22.70;59.30;;;;;;479927;247;1059;-47
2021/09/27 06:52:23;;;;;;;;;;;22.70;59.20;;;;;;479785;248;2229;-46
2021/09/27 06:54:24;;;;;;;;;;;22.70;59.20;;;;;;479856;247;1185;-46
2021/09/27 06:56:26;;;;;;;;;;;22.70;59.20;;;;;;479771;247;1103;-46
2021/09/27 06:58:27;;;;;;;;;;;22.80;59.20;;;;;;479651;248;1221;-46
2021/09/27 07:00:28;;;;;;;;;;;22.80;59.20;;;;;;479738;247;1423;-46
2021/09/27 07:02:30;;;;;;;;;;;22.70;59.20;;;;;;479663;247;1089;-46
2021/09/27 07:04:31;;;;;;;;;;;22.70;59.20;;;;;;479672;247;1116;-46
2021/09/27 07:06:32;;;;;;;;;;;22.70;59.30;;;;;;479559;248;1250;-46
2021/09/27 07:08:34;;;;;;;;;;;22.80;59.20;;;;;;479555;247;1096;-46
2021/09/27 07:10:35;;;;;;;;;;;22.70;59.30;;;;;;479539;247;1196;-46
2021/09/27 07:12:36;;;;;;;;;;;22.70;59.30;;;;;;479453;247;2197;-46
2021/09/27 07:14:37;;;;;;;;;;;22.70;59.30;;;;;;479538;248;1223;-46
2021/09/27 07:16:39;;;;;;;;;;;22.70;59.30;;;;;;479500;247;1285;-46
2021/09/27 07:18:40;;;;;;;;;;;22.70;59.40;;;;;;479570;247;1135;-46
2021/09/27 07:20:42;;;;;;;;;;;22.70;59.30;;;;;;479611;247;1230;-46
2021/09/27 07:22:43;;;;;;;;;;;22.70;59.20;;;;;;480066;247;1088;-47
2021/09/27 07:24:45;;;;;;;;;;;22.70;59.30;;;;;;479966;248;851;-46
2021/09/27 07:26:46;;;;;;;;;;;22.70;59.20;;;;;;480011;248;2433;-46
2021/09/27 07:28:52;;;;;;;;;;;22.70;59.30;;;;;;480018;248;870;-46
2021/09/27 07:30:50;;;;;;;;;;;22.70;59.20;;;;;;479714;248;2200;-47
2021/09/27 07:32:51;;;;;;;;;;;22.70;59.20;;;;;;479844;248;2217;-46
2021/09/27 07:34:52;;;;;;;;;;;22.70;59.10;;;;;;480260;247;750;-46
2021/09/27 07:36:53;;;;;;;;;;;22.70;59.20;;;;;;479428;248;1181;-47
2021/09/27 07:38:54;;;;;;;;;;;22.70;59.20;;;;;;479488;248;860;-46
2021/09/27 07:40:56;;;;;;;;;;;22.70;59.20;;;;;;479810;243;1528;-46
2021/09/27 07:42:57;;;;;;;;;;;22.70;59.20;;;;;;479901;247;990;-46
2021/09/27 07:44:59;;;;;;;;;;;22.70;59.00;;;;;;479937;247;1028;-46
2021/09/27 07:47:01;;;;;;;;;;;22.70;59.10;;;;;;479288;248;1197;-46
2021/09/27 07:49:01;;;;;;;;;;;22.70;59.00;;;;;;479354;248;2141;-46
2021/09/27 07:51:03;;;;;;;;;;;22.70;59.10;;;;;;479554;248;1486;-46
2021/09/27 07:53:04;;;;;;;;;;;22.70;59.10;;;;;;479606;248;2209;-46
2021/09/27 07:55:05;;;;;;;;;;;22.70;59.10;;;;;;479707;248;888;-45
2021/09/27 07:57:07;;;;;;;;;;;22.70;59.00;;;;;;479384;248;1071;-46
2021/09/27 07:59:08;;;;;;;;;;;22.80;59.00;;;;;;479764;247;1030;-45
2021/09/27 08:01:10;;;;;;;;;;;22.70;59.00;;;;;;479300;247;1240;-46
2021/09/27 08:03:10;;;;;;;;;;;22.70;59.10;;;;;;479515;247;2129;-46
2021/09/27 08:05:12;;;;;;;;;;;22.70;59.00;;;;;;479885;247;886;-46
2021/09/27 08:07:13;;;;;;;;;;;22.80;59.10;;;;;;479236;248;1293;-46
2021/09/27 08:09:14;;;;;;;;;;;22.70;59.10;;;;;;479863;247;781;-46
2021/09/27 08:11:16;;;;;;;;;;;22.70;59.10;;;;;;479568;248;1566;-46
2021/09/27 08:13:17;;;;;;;;;;;22.70;59.00;;;;;;479392;248;2190;-46
2021/09/27 08:15:18;;;;;;;;;;;22.70;59.00;;;;;;479992;247;784;-46
2021/09/27 08:17:20;;;;;;;;;;;22.70;59.00;;;;;;479561;248;1413;-46
2021/09/27 08:19:24;;;;;;;;;;;22.70;59.10;;;;;;479636;248;752;-46
2021/09/27 08:21:23;;;;;;;;;;;22.60;59.20;;;;;;479825;248;1878;-46
2021/09/27 08:23:24;;;;;;;;;;;22.70;59.00;;;;;;479914;247;1009;-46
2021/09/27 08:25:26;;;;;;;;;;;22.70;58.90;;;;;;479918;247;767;-46
2021/09/27 08:27:27;;;;;;;;;;;22.70;59.00;;;;;;479760;247;1428;-46
2021/09/27 08:29:28;;;;;;;;;;;22.70;59.10;;;;;;479340;248;800;-46
2021/09/27 08:31:30;;;;;;;;;;;22.70;59.00;;;;;;479682;247;1297;-46
2021/09/27 08:33:31;;;;;;;;;;;22.70;59.00;;;;;;479539;248;2178;-45
2021/09/27 08:35:32;;;;;;;;;;;22.70;58.90;;;;;;479675;248;883;-46
2021/09/27 08:37:34;;;;;;;;;;;22.70;58.90;;;;;;479603;247;1382;-46
2021/09/27 08:39:35;;;;;;;;;;;22.70;58.90;;;;;;479970;247;821;-46
2021/09/27 08:41:36;;;;;;;;;;;22.80;58.80;;;;;;479479;248;1559;-46
2021/09/27 08:43:37;;;;;;;;;;;22.70;58.90;;;;;;479653;248;1191;-46
2021/09/27 08:45:39;;;;;;;;;;;22.70;59.00;;;;;;480102;247;856;-46
2021/09/27 08:47:42;;;;;;;;;;;22.70;59.00;;;;;;479553;248;1175;-46
2021/09/27 08:49:41;;;;;;;;;;;22.80;58.90;;;;;;479714;248;2097;-46
2021/09/27 08:51:43;;;;;;;;;;;22.70;59.00;;;;;;479928;247;712;-46
2021/09/27 08:53:44;;;;;;;;;;;22.70;59.00;;;;;;479406;248;2213;-46
2021/09/27 08:55:45;;;;;;;;;;;22.70;58.90;;;;;;479918;247;781;-46
2021/09/27 08:57:47;;;;;;;;;;;22.70;58.80;;;;;;480123;247;619;-46
2021/09/27 08:59:48;;;;;;;;;;;22.70;58.80;;;;;;480168;247;816;-46
2021/09/27 09:01:49;;;;;;;;;;;22.70;58.90;;;;;;479580;248;1107;-46
2021/09/27 09:03:51;;;;;;;;;;;22.70;59.00;;;;;;480041;247;759;-46
2021/09/27 09:05:52;;;;;;;;;;;22.70;59.00;;;;;;479566;248;824;-46
2021/09/27 09:07:53;;;;;;;;;;;22.70;58.90;;;;;;479418;248;1077;-46
2021/09/27 09:09:55;;;;;;;;;;;22.70;58.90;;;;;;479480;248;797;-46
2021/09/27 09:11:56;;;;;;;;;;;22.70;58.90;;;;;;480137;247;1247;-46
2021/09/27 09:13:57;;;;;;;;;;;22.70;58.80;;;;;;480226;247;2186;-46
2021/09/27 09:16:01;;;;;;;;;;;22.70;58.90;;;;;;480087;247;794;-46
2021/09/27 09:18:00;;;;;;;;;;;22.70;58.80;;;;;;483114;246;2300;-46
2021/09/27 09:20:01;;;;;;;;;;;22.70;58.80;;;;;;483760;246;791;-45
2021/09/27 09:22:03;;;;;;;;;;;22.70;58.90;;;;;;483384;246;1493;-46
2021/09/27 09:24:04;;;;;;;;;;;22.70;58.90;;;;;;483517;246;673;-46
2021/09/27 09:26:05;;;;;;;;;;;22.70;58.80;;;;;;483942;246;1498;-46
2021/09/27 09:28:06;;;;;;;;;;;22.70;58.80;;;;;;483867;246;1063;-46
2021/09/27 09:30:08;;;;;;;;;;;22.70;58.80;;;;;;483508;246;849;-46
2021/09/27 09:32:09;;;;;;;;;;;22.70;58.80;;;;;;483803;246;1171;-46
2021/09/27 09:34:11;;;;;;;;;;;22.70;58.80;;;;;;484217;246;2179;-46
2021/09/27 09:36:12;;;;;;;;;;;22.70;58.80;;;;;;483904;246;1312;-46
2021/09/27 09:38:13;;;;;;;;;;;22.70;58.80;;;;;;484170;246;1037;-46
2021/09/27 09:40:15;;;;;;;;;;;22.70;58.90;;;;;;484263;246;917;-46
2021/09/27 09:42:16;;;;;;;;;;;22.80;58.80;;;;;;483848;246;1201;-46
2021/09/27 09:44:17;;;;;;;;;;;22.80;58.80;;;;;;483788;246;886;-46
2021/09/27 09:46:20;;;;;;;;;;;22.70;58.80;;;;;;483522;246;873;-46
2021/09/27 09:48:20;;;;;;;;;;;22.70;58.80;;;;;;483332;246;2249;-46
2021/09/27 09:50:21;;;;;;;;;;;22.80;58.80;;;;;;483470;246;844;-46
2021/09/27 09:52:24;;;;;;;;;;;22.80;58.80;;;;;;483886;246;1165;-46
2021/09/27 09:54:24;;;;;;;;;;;22.70;58.80;;;;;;483517;246;2191;-46
2021/09/27 09:56:25;;;;;;;;;;;22.70;58.80;;;;;;483917;246;1467;-46
2021/09/27 09:58:27;;;;;;;;;;;22.70;58.80;;;;;;483956;246;798;-46
2021/09/27 10:00:28;;;;;;;;;;;22.80;58.80;;;;;;483625;246;1358;-46
2021/09/27 10:02:29;;;;;;;;;;;22.80;58.80;;;;;;483719;246;1202;-46
2021/09/27 10:04:31;;;;;;;;;;;22.70;58.70;;;;;;483547;246;826;-46
2021/09/27 10:06:32;;;;;;;;;;;22.70;58.80;;;;;;484075;246;1348;-46
2021/09/27 10:08:33;;;;;;;;;;;22.80;58.80;;;;;;484324;246;1057;-46
2021/09/27 10:10:35;;;;;;;;;;;22.80;58.80;;;;;;484228;246;1389;-46
2021/09/27 10:12:36;;;;;;;;;;;22.70;58.80;;;;;;484037;246;1289;-46
2021/09/27 10:14:37;;;;;;;;;;;22.70;58.80;;;;;;483705;246;2167;-46
2021/09/27 10:16:39;;;;;;;;;;;22.70;58.80;;;;;;484037;246;1276;-46
2021/09/27 10:18:41;;;;;;;;;;;22.70;58.90;;;;;;483696;246;1109;-46
2021/09/27 10:20:41;;;;;;;;;;;22.70;58.80;;;;;;483638;246;2154;-47
2021/09/27 10:22:43;;;;;;;;;;;22.70;58.80;;;;;;484052;246;1288;-46
2021/09/27 10:24:44;;;;;;;;;;;22.70;58.90;;;;;;483723;246;1176;-46
2021/09/27 10:26:45;;;;;;;;;;;22.70;58.80;;;;;;483929;246;1019;-47
2021/09/27 10:28:46;;;;;;;;;;;22.70;58.90;;;;;;483802;246;817;-46
2021/09/27 10:30:48;;;;;;;;;;;22.70;58.90;;;;;;483795;246;1037;-47
2021/09/27 10:32:49;;;;;;;;;;;22.80;58.80;;;;;;483504;246;1207;-47
2021/09/27 10:34:50;;;;;;;;;;;22.80;58.70;;;;;;483793;246;2187;-46
2021/09/27 10:36:52;;;;;;;;;;;22.80;58.70;;;;;;483693;246;1168;-47
2021/09/27 10:38:54;;;;;;;;;;;22.80;58.70;;;;;;483915;246;1995;-47
2021/09/27 10:40:54;;;;;;;;;;;22.80;58.70;;;;;;484331;246;2131;-47
2021/09/27 10:42:56;;;;;;;;;;;22.80;58.80;;;;;;484024;246;1145;-47
2021/09/27 10:44:59;;;;;;;;;;;22.70;58.70;;;;;;484485;246;912;-47
2021/09/27 10:47:02;;;;;;;;;;;22.70;58.80;;;;;;484112;246;2091;-47
2021/09/27 10:49:01;;;;;;;;;;;22.80;58.70;;;;;;483850;246;2143;-47
2021/09/27 10:51:02;;;;;;;;;;;22.70;58.70;;;;;;484506;246;1170;-47
2021/09/27 10:53:03;;;;;;;;;;;22.80;58.80;;;;;;484248;246;1431;-47
2021/09/27 10:55:05;;;;;;;;;;;22.70;58.70;;;;;;484126;246;2199;-47
2021/09/27 10:57:06;;;;;;;;;;;22.80;58.70;;;;;;483994;246;1323;-47
2021/09/27 10:59:09;;;;;;;;;;;22.80;58.60;;;;;;483613;246;796;-47
2021/09/27 11:01:09;;;;;;;;;;;22.80;58.70;;;;;;483896;246;2280;-46
2021/09/27 11:03:10;;;;;;;;;;;22.80;58.70;;;;;;483785;246;1479;-47
2021/09/27 11:05:11;;;;;;;;;;;22.80;58.70;;;;;;484021;246;782;-47
2021/09/27 11:07:13;;;;;;;;;;;22.80;58.70;;;;;;484149;246;1067;-47
2021/09/27 11:09:17;;;;;;;;;;;22.80;58.80;;;;;;484231;246;868;-47
2021/09/27 11:11:15;;;;;;;;;;;22.80;58.70;;;;;;483816;246;2223;-47
2021/09/27 11:13:17;;;;;;;;;;;22.70;58.70;;;;;;484089;246;752;-47
2021/09/27 11:15:18;;;;;;;;;;;22.80;58.70;;;;;;484022;246;2252;-47
2021/09/27 11:17:19;;;;;;;;;;;22.80;58.50;;;;;;483375;246;984;-47
2021/09/27 11:19:23;;;;;;;;;;;22.80;58.60;;;;;;483575;246;1062;-47
2021/09/27 11:21:22;;;;;;;;;;;22.80;58.70;;;;;;483857;246;1463;-47
2021/09/27 11:23:23;;;;;;;;;;;22.70;58.70;;;;;;483612;246;831;-47
2021/09/27 11:25:25;;;;;;;;;;;22.80;58.70;;;;;;484037;246;813;-47
2021/09/27 11:27:26;;;;;;;;;;;22.80;58.60;;;;;;484126;246;1147;-47
2021/09/27 11:29:27;;;;;;;;;;;22.80;58.70;;;;;;484147;246;1218;-47
2021/09/27 11:31:29;;;;;;;;;;;22.80;58.60;;;;;;484155;246;834;-47
2021/09/27 11:33:30;;;;;;;;;;;22.80;58.60;;;;;;483602;246;1596;-47
2021/09/27 11:35:31;;;;;;;;;;;22.80;58.70;;;;;;484221;246;2175;-47
2021/09/27 11:37:32;;;;;;;;;;;22.80;58.60;;;;;;483963;246;1095;-47
2021/09/27 11:39:34;;;;;;;;;;;22.80;58.60;;;;;;484505;246;882;-47
2021/09/27 11:41:36;;;;;;;;;;;22.80;58.60;;;;;;484101;246;1289;-47
2021/09/27 11:43:36;;;;;;;;;;;22.80;58.60;;;;;;484282;246;1906;-47
2021/09/27 11:45:40;;;;;;;;;;;22.80;58.60;;;;;;484338;246;1063;-47
2021/09/27 11:47:39;;;;;;;;;;;22.80;58.50;;;;;;484037;246;1766;-47
2021/09/27 11:49:40;;;;;;;;;;;22.80;58.50;;;;;;483956;246;1092;-47
2021/09/27 11:51:42;;;;;;;;;;;22.80;58.50;;;;;;483463;246;1234;-46
2021/09/27 11:53:43;;;;;;;;;;;22.80;58.50;;;;;;483913;246;2187;-46
2021/09/27 11:55:44;;;;;;;;;;;22.80;58.50;;;;;;483665;246;1551;-46
2021/09/27 11:57:46;;;;;;;;;;;22.80;58.50;;;;;;483569;246;1037;-46